KMOR/MOR METAR and TAF weather

Enter ICAO airport designator
Station Type Date Time Source
KMOR METAR 2020/04/08 22:15 UTC NOAA

KMOR 082215Z AUTO 24008KT 10SM CLR 25/16 A2973 RMK A01


Station Type Date Time Source
KMOR Decoded METAR 2020/04/08 22:15 UTC NOAA

Station name not available
Apr 08, 2020 - 06:15 PM EDT / 2020.04.08 2215 UTC
Wind: from the WSW (240 degrees) at 9 MPH (8 KT):0
Visibility: 10 mile(s):0
Sky conditions: clear
Temperature: 77 F (25 C)
Dew Point: 60 F (16 C)
Relative Humidity: 57%
Pressure (altimeter): 29.73 in. Hg (1006 hPa)
ob: KMOR 082215Z AUTO 24008KT 10SM CLR 25/16 A2973 RMK A01
cycle: 22

Station Type Date Time Source
KMOR TAF UTC NOAA

Error!

Example: see airport list